Sea Island, GA (31561)

11:27 PM EDT on September 01, 2015 (GMT -0400)
Bloody Marsh | | Change Station
CLOSE
Current Station
Personal Weather Station
Location: Saint Simons Island, GA
Elevation: 7 ft
Nearby Weather Stations

Elev 7 ft 31.16 °N, 81.38 °W | Updated 49 minutes ago

Partly Cloudy
Partly Cloudy
73.7 °F
Feels Like 74 °F
N
0.0
Wind Variable Wind from North
Gusts 0.0 mph

Today
High -- | Low -- °F
--% Chance of Precip.
Yesterday
High -- | Low -- °F
Precip. -- in
7:01 AM 7:49 PM
Waning Gibbous, 84% visible
Pressure 30.10 in
Visibility 10.0 miles
Clouds Few 1400 ft
Heat Index 74 °F
Dew Point 66 °F
Humidity 78%
Rainfall in
Snow Depth Not available.
UV 0 out of 12
Pollen 5.40 out of 12
Air Quality Not available.
Flu Activity Not available.
METAR KSSI 020253Z AUTO 00000KT 10SM FEW014 26/24 A3009 RMK AO2 LTG DSNT S SLP191 T02560244 53011
Pressure 30.10 in
Visibility 10.0 miles
Clouds Few 1400 ft
Heat Index 74 °F
Dew Point 66 °F
Humidity 78%
Rainfall in
Snow Depth Not available.
UV 0 out of 12
Pollen 5.40 out of 12
Air Quality Not available.
Flu Activity Not available.
METAR KSSI 020253Z AUTO 00000KT 10SM FEW014 26/24 A3009 RMK AO2 LTG DSNT S SLP191 T02560244 53011

10-Day Weather Forecast

×

Almanac

Astronomy

Sep. 01, 2015 Rise Set
Actual Time
Civil Twilight
Nautical Twilight
Astronomical Twilight
Moon
Length of Visible Light
Length of Day
Tomorrow will be .
, % of the Moon is Illuminated

Today's Extremes

State Highs State Lows

Community

WunderPhotos

Upload Photos

1,851,680 photos uploaded!

WunderBlogs® & News

Nearby

Air Quality

  Air Quality AQ Index Pollutant
Not available.

Snow Depth

Station Depth Elevation

Earthquake Activity

City Distance Mag. Time & Date
Minimum magnitude displayed is 2.5.

Coastal Water Temperatures

Place Temperature

Stations

Nearby Weather Stations

Station Location Temp. Windchill Dew Point Humidity Wind Precip. Elev Updated Type